LSZB

Bern Belp Airport

Airport
ICAO code
LSZB
IATA Code
BRN
Summary
ICAO Region
EUR
ICAO Territory
Location

Belp, Bern

Serving
Bern
Elevation
1674 ft
Coordinates
46° 54' 51" N , 7° 29' 50" E
KCC
Cfa
Metar
Observation
LSZB 101020Z 32006KT CAVOK 25/14 Q1021
Station
Bern / Belp
Date/Time
2022-08-10 10:20:00
Wind direction
320°
Wind speed
06 kts
Lowest cloud amount
clouds and visibility OK
Temperature
25°C
Dew point
14°C
Humidity
50%
QNH
1021 hPa
Weather condition
n/a

Bern Airport is an airport serving Bern, the capital of Switzerland. The airport is located within the town limits of Belp.

Climatology

Humid “subtropical” climate (Köppen climate classification Cfa)

Runways

Designator Length Width Surface Rops
14R/32L 648 30 GRS No/No
14L/32R 650 30 GRS No/No
14/32 1510 30 ASP Yes/Yes

SKYbrary Partners:

Safety knowledge contributed by: